sensor_id;sensor_type;location;lat;lon;timestamp;pressure;altitude;pressure_sealevel;temperature;humidity
6028;BME280;3042;43.194;27.646;2022-07-29T00:01:07;101536.09;;;28.69;100.00
6028;BME280;3042;43.194;27.646;2022-07-29T00:03:35;101530.84;;;28.64;100.00
6028;BME280;3042;43.194;27.646;2022-07-29T00:06:02;101528.19;;;28.64;100.00
6028;BME280;3042;43.194;27.646;2022-07-29T00:08:29;101525.56;;;28.61;100.00
6028;BME280;3042;43.194;27.646;2022-07-29T00:10:58;101531.72;;;28.66;100.00
6028;BME280;3042;43.194;27.646;2022-07-29T00:13:25;101527.44;;;28.57;100.00
6028;BME280;3042;43.194;27.646;2022-07-29T00:15:53;101530.97;;;28.56;100.00
6028;BME280;3042;43.194;27.646;2022-07-29T00:18:20;101529.38;;;28.48;100.00
6028;BME280;3042;43.194;27.646;2022-07-29T00:20:47;101532.94;;;28.44;100.00
6028;BME280;3042;43.194;27.646;2022-07-29T00:23:14;101531.25;;;28.39;100.00
6028;BME280;3042;43.194;27.646;2022-07-29T00:25:42;101524.25;;;28.35;100.00
6028;BME280;3042;43.194;27.646;2022-07-29T00:28:10;101539.19;;;28.41;100.00
6028;BME280;3042;43.194;27.646;2022-07-29T00:30:38;101535.75;;;28.36;100.00
6028;BME280;3042;43.194;27.646;2022-07-29T00:33:07;101535.75;;;28.34;100.00
6028;BME280;3042;43.194;27.646;2022-07-29T00:35:34;101538.47;;;28.31;100.00
6028;BME280;3042;43.194;27.646;2022-07-29T00:38:10;101542.16;;;28.24;100.00
6028;BME280;3042;43.194;27.646;2022-07-29T00:40:37;101500.06;;;27.96;100.00
6028;BME280;3042;43.194;27.646;2022-07-29T00:43:05;101537.00;;;28.12;100.00
6028;BME280;3042;43.194;27.646;2022-07-29T00:45:34;101508.91;;;27.95;100.00
6028;BME280;3042;43.194;27.646;2022-07-29T00:48:01;101544.16;;;28.10;100.00
6028;BME280;3042;43.194;27.646;2022-07-29T00:50:31;101537.94;;;28.09;100.00
6028;BME280;3042;43.194;27.646;2022-07-29T00:52:59;101540.72;;;28.02;100.00
6028;BME280;3042;43.194;27.646;2022-07-29T00:55:27;101518.34;;;27.54;100.00
6028;BME280;3042;43.194;27.646;2022-07-29T00:57:55;101506.06;;;27.49;100.00
6028;BME280;3042;43.194;27.646;2022-07-29T01:00:24;101543.66;;;27.80;100.00
6028;BME280;3042;43.194;27.646;2022-07-29T01:02:53;101550.75;;;27.84;100.00
6028;BME280;3042;43.194;27.646;2022-07-29T01:05:22;101548.16;;;27.75;100.00
6028;BME280;3042;43.194;27.646;2022-07-29T01:07:52;101551.69;;;27.77;100.00
6028;BME280;3042;43.194;27.646;2022-07-29T01:10:21;101546.41;;;27.74;100.00
6028;BME280;3042;43.194;27.646;2022-07-29T01:12:50;101516.63;;;27.50;100.00
6028;BME280;3042;43.194;27.646;2022-07-29T01:15:18;101507.00;;;27.42;100.00
6028;BME280;3042;43.194;27.646;2022-07-29T01:17:52;101504.34;;;27.43;100.00
6028;BME280;3042;43.194;27.646;2022-07-29T01:20:27;101522.00;;;27.47;100.00
6028;BME280;3042;43.194;27.646;2022-07-29T01:26:27;101532.53;;;27.53;100.00
6028;BME280;3042;43.194;27.646;2022-07-29T01:29:02;101382.47;;;26.58;100.00
6028;BME280;3042;43.194;27.646;2022-07-29T01:31:39;101536.19;;;27.45;100.00
6028;BME280;3042;43.194;27.646;2022-07-29T01:34:08;101532.72;;;27.38;100.00
6028;BME280;3042;43.194;27.646;2022-07-29T01:36:43;101483.53;;;27.06;100.00
6028;BME280;3042;43.194;27.646;2022-07-29T01:39:19;101538.09;;;27.35;100.00
6028;BME280;3042;43.194;27.646;2022-07-29T01:41:56;101539.81;;;27.36;100.00
6028;BME280;3042;43.194;27.646;2022-07-29T01:44:31;101538.97;;;27.34;100.00
6028;BME280;3042;43.194;27.646;2022-07-29T01:47:05;101539.84;;;27.34;100.00
6028;BME280;3042;43.194;27.646;2022-07-29T01:49:36;101533.72;;;27.29;100.00
6028;BME280;3042;43.194;27.646;2022-07-29T01:52:09;101531.13;;;27.25;100.00
6028;BME280;3042;43.194;27.646;2022-07-29T01:54:41;101530.22;;;27.26;100.00
6028;BME280;3042;43.194;27.646;2022-07-29T01:57:14;101525.78;;;27.28;100.00
6028;BME280;3042;43.194;27.646;2022-07-29T01:59:45;101540.81;;;27.29;100.00
6028;BME280;3042;43.194;27.646;2022-07-29T02:02:14;101523.22;;;27.17;100.00
6028;BME280;3042;43.194;27.646;2022-07-29T02:04:43;101532.94;;;27.20;100.00
6028;BME280;3042;43.194;27.646;2022-07-29T02:07:17;101532.88;;;27.26;100.00
6028;BME280;3042;43.194;27.646;2022-07-29T02:09:45;101532.84;;;27.29;100.00
6028;BME280;3042;43.194;27.646;2022-07-29T02:12:14;101515.25;;;27.19;100.00
6028;BME280;3042;43.194;27.646;2022-07-29T02:14:48;101515.25;;;27.22;100.00
6028;BME280;3042;43.194;27.646;2022-07-29T02:17:21;101517.84;;;27.25;100.00
6028;BME280;3042;43.194;27.646;2022-07-29T02:19:50;101514.44;;;27.12;100.00
6028;BME280;3042;43.194;27.646;2022-07-29T02:22:19;101409.03;;;26.50;100.00
6028;BME280;3042;43.194;27.646;2022-07-29T02:24:49;101513.56;;;27.10;100.00
6028;BME280;3042;43.194;27.646;2022-07-29T02:27:19;101519.72;;;27.13;100.00
6028;BME280;3042;43.194;27.646;2022-07-29T02:29:49;101524.13;;;27.14;100.00
6028;BME280;3042;43.194;27.646;2022-07-29T02:32:17;101533.84;;;27.15;100.00
6028;BME280;3042;43.194;27.646;2022-07-29T02:34:46;101522.41;;;27.10;100.00
6028;BME280;3042;43.194;27.646;2022-07-29T02:37:16;101529.50;;;27.11;100.00
6028;BME280;3042;43.194;27.646;2022-07-29T02:39:45;101513.63;;;27.05;100.00
6028;BME280;3042;43.194;27.646;2022-07-29T02:42:16;101508.38;;;27.01;100.00
6028;BME280;3042;43.194;27.646;2022-07-29T02:44:43;101518.13;;;26.97;100.00
6028;BME280;3042;43.194;27.646;2022-07-29T02:47:17;101523.38;;;27.02;100.00
6028;BME280;3042;43.194;27.646;2022-07-29T02:49:50;101534.84;;;27.05;100.00
6028;BME280;3042;43.194;27.646;2022-07-29T02:52:24;101522.56;;;26.98;100.00
6028;BME280;3042;43.194;27.646;2022-07-29T02:54:56;101538.38;;;27.07;100.00
6028;BME280;3042;43.194;27.646;2022-07-29T02:57:31;101504.09;;;26.89;100.00
6028;BME280;3042;43.194;27.646;2022-07-29T03:00:03;101552.47;;;27.12;100.00
6028;BME280;3042;43.194;27.646;2022-07-29T03:02:35;101550.66;;;27.14;100.00
6028;BME280;3042;43.194;27.646;2022-07-29T03:05:04;101523.38;;;27.03;100.00
6028;BME280;3042;43.194;27.646;2022-07-29T03:07:34;101570.00;;;27.30;100.00
6028;BME280;3042;43.194;27.646;2022-07-29T03:10:02;101581.44;;;27.37;100.00
6028;BME280;3042;43.194;27.646;2022-07-29T03:12:30;101542.66;;;27.17;100.00
6028;BME280;3042;43.194;27.646;2022-07-29T03:14:59;101575.16;;;27.41;100.00
6028;BME280;3042;43.194;27.646;2022-07-29T03:17:27;101585.66;;;27.50;100.00
6028;BME280;3042;43.194;27.646;2022-07-29T03:19:58;101601.41;;;27.66;100.00
6028;BME280;3042;43.194;27.646;2022-07-29T03:22:26;101601.38;;;27.69;100.00
6028;BME280;3042;43.194;27.646;2022-07-29T03:24:54;101615.44;;;27.77;100.00
6028;BME280;3042;43.194;27.646;2022-07-29T03:27:21;101608.41;;;27.73;100.00
6028;BME280;3042;43.194;27.646;2022-07-29T03:29:48;101620.63;;;27.89;100.00
6028;BME280;3042;43.194;27.646;2022-07-29T03:32:16;101627.59;;;27.96;100.00
6028;BME280;3042;43.194;27.646;2022-07-29T03:34:43;101623.09;;;28.03;100.00
6028;BME280;3042;43.194;27.646;2022-07-29T03:37:12;101626.56;;;28.08;100.00
6028;BME280;3042;43.194;27.646;2022-07-29T03:39:40;101557.94;;;27.71;100.00
6028;BME280;3042;43.194;27.646;2022-07-29T03:42:10;101654.53;;;28.35;100.00
6028;BME280;3042;43.194;27.646;2022-07-29T03:44:40;101612.13;;;28.26;100.00
6028;BME280;3042;43.194;27.646;2022-07-29T03:47:09;101661.06;;;28.72;100.00
6028;BME280;3042;43.194;27.646;2022-07-29T03:49:38;101661.69;;;28.88;100.00
6028;BME280;3042;43.194;27.646;2022-07-29T03:52:07;101650.03;;;28.96;100.00
6028;BME280;3042;43.194;27.646;2022-07-29T03:54:36;101665.47;;;29.27;100.00
6028;BME280;3042;43.194;27.646;2022-07-29T03:57:05;101669.44;;;29.51;100.00
6028;BME280;3042;43.194;27.646;2022-07-29T03:59:34;101669.13;;;29.66;100.00
6028;BME280;3042;43.194;27.646;2022-07-29T04:02:02;101669.13;;;29.66;100.00
6028;BME280;3042;43.194;27.646;2022-07-29T04:04:33;101676.13;;;29.74;100.00
6028;BME280;3042;43.194;27.646;2022-07-29T04:07:00;101680.44;;;29.79;100.00
6028;BME280;3042;43.194;27.646;2022-07-29T04:09:27;101680.16;;;29.93;100.00
6028;BME280;3042;43.194;27.646;2022-07-29T04:11:56;101691.16;;;30.18;100.00
6028;BME280;3042;43.194;27.646;2022-07-29T04:14:23;101694.16;;;30.43;100.00
6028;BME280;3042;43.194;27.646;2022-07-29T04:16:51;101693.69;;;30.65;100.00
6028;BME280;3042;43.194;27.646;2022-07-29T04:19:18;101696.53;;;30.95;100.00
6028;BME280;3042;43.194;27.646;2022-07-29T04:21:45;101703.06;;;31.17;100.00
6028;BME280;3042;43.194;27.646;2022-07-29T04:24:13;101709.56;;;31.40;100.00
6028;BME280;3042;43.194;27.646;2022-07-29T04:26:40;101703.84;;;31.55;100.00
6028;BME280;3042;43.194;27.646;2022-07-29T04:29:09;101692.91;;;31.64;100.00
6028;BME280;3042;43.194;27.646;2022-07-29T04:31:37;101713.75;;;31.83;100.00
6028;BME280;3042;43.194;27.646;2022-07-29T04:34:04;101714.09;;;32.03;100.00
6028;BME280;3042;43.194;27.646;2022-07-29T04:36:32;101719.81;;;32.21;100.00
6028;BME280;3042;43.194;27.646;2022-07-29T04:38:59;101727.13;;;32.44;100.00
6028;BME280;3042;43.194;27.646;2022-07-29T04:41:27;101724.91;;;32.58;100.00
6028;BME280;3042;43.194;27.646;2022-07-29T04:43:55;101710.69;;;32.56;100.00
6028;BME280;3042;43.194;27.646;2022-07-29T04:46:23;101718.16;;;32.73;100.00
6028;BME280;3042;43.194;27.646;2022-07-29T04:48:51;101717.34;;;32.71;100.00
6028;BME280;3042;43.194;27.646;2022-07-29T04:51:18;101701.53;;;32.63;100.00
6028;BME280;3042;43.194;27.646;2022-07-29T04:53:45;101702.88;;;32.78;100.00
6028;BME280;3042;43.194;27.646;2022-07-29T04:56:13;101691.50;;;32.70;100.00
6028;BME280;3042;43.194;27.646;2022-07-29T04:58:40;101718.34;;;32.95;100.00
6028;BME280;3042;43.194;27.646;2022-07-29T05:01:09;101698.19;;;33.11;100.00
6028;BME280;3042;43.194;27.646;2022-07-29T05:03:37;101714.91;;;33.43;100.00
6028;BME280;3042;43.194;27.646;2022-07-29T05:06:05;101713.59;;;33.55;100.00
6028;BME280;3042;43.194;27.646;2022-07-29T05:08:32;101703.13;;;33.49;100.00
6028;BME280;3042;43.194;27.646;2022-07-29T05:10:59;101684.72;;;33.38;100.00
6028;BME280;3042;43.194;27.646;2022-07-29T05:13:26;101679.66;;;33.30;100.00
6028;BME280;3042;43.194;27.646;2022-07-29T05:15:54;101695.06;;;33.49;100.00
6028;BME280;3042;43.194;27.646;2022-07-29T05:18:21;101694.47;;;33.40;100.00
6028;BME280;3042;43.194;27.646;2022-07-29T05:20:50;101735.75;;;34.09;100.00
6028;BME280;3042;43.194;27.646;2022-07-29T05:23:17;101738.84;;;34.45;100.00
6028;BME280;3042;43.194;27.646;2022-07-29T05:25:44;101740.44;;;34.95;100.00
6028;BME280;3042;43.194;27.646;2022-07-29T05:28:12;101711.03;;;35.12;100.00
6028;BME280;3042;43.194;27.646;2022-07-29T05:30:39;101752.22;;;35.76;100.00
6028;BME280;3042;43.194;27.646;2022-07-29T05:33:06;101750.41;;;35.95;100.00
6028;BME280;3042;43.194;27.646;2022-07-29T05:35:33;101743.13;;;36.18;100.00
6028;BME280;3042;43.194;27.646;2022-07-29T05:38:04;101759.97;;;36.59;100.00
6028;BME280;3042;43.194;27.646;2022-07-29T05:40:31;101759.94;;;36.78;100.00
6028;BME280;3042;43.194;27.646;2022-07-29T05:42:59;101743.25;;;36.89;100.00
6028;BME280;3042;43.194;27.646;2022-07-29T05:45:27;101772.00;;;37.25;100.00
6028;BME280;3042;43.194;27.646;2022-07-29T05:47:54;101766.44;;;37.45;100.00
6028;BME280;3042;43.194;27.646;2022-07-29T05:50:21;101750.13;;;37.31;100.00
6028;BME280;3042;43.194;27.646;2022-07-29T05:52:48;101750.56;;;37.39;100.00
6028;BME280;3042;43.194;27.646;2022-07-29T05:55:17;101746.94;;;37.40;100.00
6028;BME280;3042;43.194;27.646;2022-07-29T05:57:44;101760.72;;;37.51;100.00
6028;BME280;3042;43.194;27.646;2022-07-29T06:00:12;101736.38;;;37.35;100.00
6028;BME280;3042;43.194;27.646;2022-07-29T06:02:39;101723.81;;;37.18;100.00
6028;BME280;3042;43.194;27.646;2022-07-29T06:05:07;101745.19;;;37.39;100.00
6028;BME280;3042;43.194;27.646;2022-07-29T06:07:34;101733.31;;;37.26;100.00
6028;BME280;3042;43.194;27.646;2022-07-29T06:10:02;101762.97;;;37.61;100.00
6028;BME280;3042;43.194;27.646;2022-07-29T06:12:31;101742.09;;;37.47;100.00
6028;BME280;3042;43.194;27.646;2022-07-29T06:14:58;101716.78;;;37.32;100.00
6028;BME280;3042;43.194;27.646;2022-07-29T06:17:25;101725.19;;;37.43;100.00
6028;BME280;3042;43.194;27.646;2022-07-29T06:19:53;101739.97;;;37.87;100.00
6028;BME280;3042;43.194;27.646;2022-07-29T06:22:20;101779.47;;;38.54;100.00
6028;BME280;3042;43.194;27.646;2022-07-29T06:24:47;101719.56;;;37.81;100.00
6028;BME280;3042;43.194;27.646;2022-07-29T06:27:14;101748.22;;;38.17;100.00
6028;BME280;3042;43.194;27.646;2022-07-29T06:29:43;101795.13;;;38.79;100.00
6028;BME280;3042;43.194;27.646;2022-07-29T06:32:11;101790.59;;;39.26;100.00
6028;BME280;3042;43.194;27.646;2022-07-29T06:34:38;101745.41;;;38.82;100.00
6028;BME280;3042;43.194;27.646;2022-07-29T06:37:06;101693.19;;;38.35;100.00
6028;BME280;3042;43.194;27.646;2022-07-29T06:39:34;101761.50;;;39.15;100.00
6028;BME280;3042;43.194;27.646;2022-07-29T06:42:03;101708.41;;;38.68;100.00
6028;BME280;3042;43.194;27.646;2022-07-29T06:44:31;101697.34;;;38.57;100.00
6028;BME280;3042;43.194;27.646;2022-07-29T06:47:00;101707.63;;;38.66;100.00
6028;BME280;3042;43.194;27.646;2022-07-29T06:49:28;101634.22;;;37.63;100.00
6028;BME280;3042;43.194;27.646;2022-07-29T06:51:55;101640.88;;;37.73;100.00
6028;BME280;3042;43.194;27.646;2022-07-29T06:54:22;101645.75;;;37.66;100.00
6028;BME280;3042;43.194;27.646;2022-07-29T06:56:50;101645.75;;;37.66;100.00
6028;BME280;3042;43.194;27.646;2022-07-29T06:59:17;101655.06;;;37.76;100.00
6028;BME280;3042;43.194;27.646;2022-07-29T07:01:44;101670.16;;;37.96;100.00
6028;BME280;3042;43.194;27.646;2022-07-29T07:04:13;101673.28;;;38.05;100.00
6028;BME280;3042;43.194;27.646;2022-07-29T07:06:40;101686.91;;;38.19;98.29
6028;BME280;3042;43.194;27.646;2022-07-29T07:09:08;101718.25;;;38.69;97.21
6028;BME280;3042;43.194;27.646;2022-07-29T07:11:35;101708.03;;;38.74;93.68
6028;BME280;3042;43.194;27.646;2022-07-29T07:14:02;101700.31;;;38.68;90.78
6028;BME280;3042;43.194;27.646;2022-07-29T07:16:30;101704.41;;;38.90;88.46
6028;BME280;3042;43.194;27.646;2022-07-29T07:18:58;101715.03;;;39.09;88.37
6028;BME280;3042;43.194;27.646;2022-07-29T07:21:26;101713.97;;;39.11;88.98
6028;BME280;3042;43.194;27.646;2022-07-29T07:23:54;101706.06;;;39.08;83.66
6028;BME280;3042;43.194;27.646;2022-07-29T07:26:21;101697.75;;;39.11;83.18
6028;BME280;3042;43.194;27.646;2022-07-29T07:28:48;101661.88;;;38.77;84.87
6028;BME280;3042;43.194;27.646;2022-07-29T07:31:15;101695.78;;;38.99;84.55
6028;BME280;3042;43.194;27.646;2022-07-29T07:33:43;101631.13;;;38.50;78.80
6028;BME280;3042;43.194;27.646;2022-07-29T07:36:10;101675.50;;;38.92;79.23
6028;BME280;3042;43.194;27.646;2022-07-29T07:38:39;101643.53;;;38.68;76.28
6028;BME280;3042;43.194;27.646;2022-07-29T07:41:06;101649.16;;;38.79;74.73
6028;BME280;3042;43.194;27.646;2022-07-29T07:43:33;101665.88;;;38.86;77.17
6028;BME280;3042;43.194;27.646;2022-07-29T07:46:01;101640.66;;;38.71;79.03
6028;BME280;3042;43.194;27.646;2022-07-29T07:48:28;101561.47;;;38.09;80.15
6028;BME280;3042;43.194;27.646;2022-07-29T07:50:55;101634.94;;;38.46;81.02
6028;BME280;3042;43.194;27.646;2022-07-29T07:53:23;101631.81;;;38.37;80.39
6028;BME280;3042;43.194;27.646;2022-07-29T07:55:52;101637.63;;;38.46;80.06
6028;BME280;3042;43.194;27.646;2022-07-29T07:58:19;101640.19;;;38.49;79.01
6028;BME280;3042;43.194;27.646;2022-07-29T08:00:47;101615.53;;;38.23;78.89
6028;BME280;3042;43.194;27.646;2022-07-29T08:03:14;101617.84;;;38.15;78.51
6028;BME280;3042;43.194;27.646;2022-07-29T08:05:41;101487.25;;;37.54;77.52
6028;BME280;3042;43.194;27.646;2022-07-29T08:08:09;101624.66;;;38.36;76.25
6028;BME280;3042;43.194;27.646;2022-07-29T08:10:36;101615.53;;;38.23;76.05
6028;BME280;3042;43.194;27.646;2022-07-29T08:13:25;101609.00;;;38.27;74.67
6028;BME280;3042;43.194;27.646;2022-07-29T08:15:54;101586.38;;;38.14;73.00
6028;BME280;3042;43.194;27.646;2022-07-29T08:18:25;101595.09;;;38.19;72.98
6028;BME280;3042;43.194;27.646;2022-07-29T08:20:53;101623.81;;;38.52;73.62
6028;BME280;3042;43.194;27.646;2022-07-29T08:23:20;101646.06;;;38.71;73.53
6028;BME280;3042;43.194;27.646;2022-07-29T08:25:48;101635.00;;;38.60;73.09
6028;BME280;3042;43.194;27.646;2022-07-29T08:28:16;101634.28;;;38.72;71.13
6028;BME280;3042;43.194;27.646;2022-07-29T08:30:45;101610.56;;;38.47;72.42
6028;BME280;3042;43.194;27.646;2022-07-29T08:33:12;101570.69;;;38.05;72.41
6028;BME280;3042;43.194;27.646;2022-07-29T08:35:39;101590.03;;;38.13;71.43
6028;BME280;3042;43.194;27.646;2022-07-29T08:38:06;101624.31;;;38.42;72.72
6028;BME280;3042;43.194;27.646;2022-07-29T08:40:35;101648.66;;;38.73;72.21
6028;BME280;3042;43.194;27.646;2022-07-29T08:43:06;101655.91;;;38.87;71.59
6028;BME280;3042;43.194;27.646;2022-07-29T08:45:42;101681.25;;;39.30;70.29
6028;BME280;3042;43.194;27.646;2022-07-29T08:48:12;101646.34;;;38.97;70.65
6028;BME280;3042;43.194;27.646;2022-07-29T08:50:41;101666.66;;;39.18;70.83
6028;BME280;3042;43.194;27.646;2022-07-29T08:53:11;101649.44;;;39.05;70.84
6028;BME280;3042;43.194;27.646;2022-07-29T08:55:39;101616.81;;;38.78;68.96
6028;BME280;3042;43.194;27.646;2022-07-29T08:58:08;101629.59;;;38.90;69.03
6028;BME280;3042;43.194;27.646;2022-07-29T09:00:38;101566.47;;;38.61;69.52
6028;BME280;3042;43.194;27.646;2022-07-29T09:03:09;101622.41;;;38.89;69.62
6028;BME280;3042;43.194;27.646;2022-07-29T09:05:41;101584.22;;;38.51;70.16
6028;BME280;3042;43.194;27.646;2022-07-29T09:08:09;101538.28;;;38.20;70.43
6028;BME280;3042;43.194;27.646;2022-07-29T09:10:36;101599.69;;;38.63;71.12
6028;BME280;3042;43.194;27.646;2022-07-29T09:13:04;101504.22;;;38.18;69.84
6028;BME280;3042;43.194;27.646;2022-07-29T09:15:32;101665.53;;;39.37;69.54
6028;BME280;3042;43.194;27.646;2022-07-29T09:17:59;101629.16;;;39.12;67.51
6028;BME280;3042;43.194;27.646;2022-07-29T09:20:27;101629.84;;;39.16;67.97
6028;BME280;3042;43.194;27.646;2022-07-29T09:23:17;101612.63;;;39.02;67.94
6028;BME280;3042;43.194;27.646;2022-07-29T09:25:44;101590.88;;;38.90;66.99
6028;BME280;3042;43.194;27.646;2022-07-29T09:28:14;101519.91;;;38.41;66.27
6028;BME280;3042;43.194;27.646;2022-07-29T09:30:50;101559.38;;;38.74;67.57
6028;BME280;3042;43.194;27.646;2022-07-29T09:33:18;101577.72;;;38.83;66.49
6028;BME280;3042;43.194;27.646;2022-07-29T09:35:46;101587.59;;;38.84;66.49
6028;BME280;3042;43.194;27.646;2022-07-29T09:38:13;101581.78;;;38.91;65.73
6028;BME280;3042;43.194;27.646;2022-07-29T09:40:56;101589.72;;;38.94;65.53
6028;BME280;3042;43.194;27.646;2022-07-29T09:43:23;101596.13;;;39.07;64.98
6028;BME280;3042;43.194;27.646;2022-07-29T09:45:50;101508.22;;;38.57;64.38
6028;BME280;3042;43.194;27.646;2022-07-29T09:48:19;101593.81;;;39.01;65.13
6028;BME280;3042;43.194;27.646;2022-07-29T09:50:49;101575.06;;;39.12;63.85
6028;BME280;3042;43.194;27.646;2022-07-29T09:53:31;101660.88;;;39.82;63.14
6028;BME280;3042;43.194;27.646;2022-07-29T09:56:00;101611.78;;;39.59;60.62
6028;BME280;3042;43.194;27.646;2022-07-29T09:58:27;101661.41;;;40.01;62.86
6028;BME280;3042;43.194;27.646;2022-07-29T10:00:56;101681.69;;;40.23;62.28
6028;BME280;3042;43.194;27.646;2022-07-29T10:03:23;101557.78;;;39.29;61.93
6028;BME280;3042;43.194;27.646;2022-07-29T10:06:08;101620.94;;;39.71;60.99
6028;BME280;3042;43.194;27.646;2022-07-29T10:08:36;101586.38;;;39.47;61.63
6028;BME280;3042;43.194;27.646;2022-07-29T10:11:15;101589.47;;;39.56;59.20
6028;BME280;3042;43.194;27.646;2022-07-29T10:13:44;101615.34;;;39.74;60.65
6028;BME280;3042;43.194;27.646;2022-07-29T10:16:12;101622.13;;;39.81;60.27
6028;BME280;3042;43.194;27.646;2022-07-29T10:18:42;101603.84;;;39.71;59.62
6028;BME280;3042;43.194;27.646;2022-07-29T10:21:09;101646.94;;;40.02;61.47
6028;BME280;3042;43.194;27.646;2022-07-29T10:23:37;101665.25;;;40.26;61.41
6028;BME280;3042;43.194;27.646;2022-07-29T10:26:05;101656.41;;;40.22;61.13
6028;BME280;3042;43.194;27.646;2022-07-29T10:28:34;101670.63;;;40.40;62.04
6028;BME280;3042;43.194;27.646;2022-07-29T10:31:05;101659.09;;;40.37;60.44
6028;BME280;3042;43.194;27.646;2022-07-29T10:33:44;101629.63;;;40.18;59.68
6028;BME280;3042;43.194;27.646;2022-07-29T10:36:38;101625.00;;;40.20;59.98
6028;BME280;3042;43.194;27.646;2022-07-29T10:39:18;101669.72;;;40.67;58.45
6028;BME280;3042;43.194;27.646;2022-07-29T10:42:02;101658.00;;;40.54;58.77
6028;BME280;3042;43.194;27.646;2022-07-29T10:44:51;101653.66;;;40.64;57.97
6028;BME280;3042;43.194;27.646;2022-07-29T10:47:21;101581.09;;;40.15;57.10
6028;BME280;3042;43.194;27.646;2022-07-29T10:49:57;101663.34;;;40.68;59.32
6028;BME280;3042;43.194;27.646;2022-07-29T10:52:25;101644.53;;;40.52;59.19
6028;BME280;3042;43.194;27.646;2022-07-29T10:55:30;101533.56;;;39.83;58.49
6028;BME280;3042;43.194;27.646;2022-07-29T10:58:11;101623.00;;;40.36;59.36
6028;BME280;3042;43.194;27.646;2022-07-29T11:00:41;101652.13;;;40.60;59.37
6028;BME280;3042;43.194;27.646;2022-07-29T11:03:09;101669.34;;;40.86;59.58
6028;BME280;3042;43.194;27.646;2022-07-29T11:05:53;101614.63;;;40.54;56.83
6028;BME280;3042;43.194;27.646;2022-07-29T11:08:22;101605.81;;;40.37;57.96
6028;BME280;3042;43.194;27.646;2022-07-29T11:10:53;101603.50;;;40.31;58.32
6028;BME280;3042;43.194;27.646;2022-07-29T11:13:45;101613.50;;;40.43;58.40
6028;BME280;3042;43.194;27.646;2022-07-29T11:16:15;101609.69;;;40.46;59.09
6028;BME280;3042;43.194;27.646;2022-07-29T11:21:46;101567.56;;;40.42;57.94
6028;BME280;3042;43.194;27.646;2022-07-29T11:24:16;101670.06;;;41.15;57.92
6028;BME280;3042;43.194;27.646;2022-07-29T11:26:44;101602.69;;;40.56;58.52
6028;BME280;3042;43.194;27.646;2022-07-29T11:29:19;101671.78;;;41.16;58.11
6028;BME280;3042;43.194;27.646;2022-07-29T11:31:51;101617.81;;;40.73;57.45
6028;BME280;3042;43.194;27.646;2022-07-29T11:34:23;101608.75;;;40.60;57.75
6028;BME280;3042;43.194;27.646;2022-07-29T11:37:15;101649.50;;;41.11;57.96
6028;BME280;3042;43.194;27.646;2022-07-29T11:39:44;101622.91;;;40.90;57.62
6028;BME280;3042;43.194;27.646;2022-07-29T11:42:41;101596.84;;;40.62;56.84
6028;BME280;3042;43.194;27.646;2022-07-29T11:45:11;101469.31;;;39.58;55.94
6028;BME280;3042;43.194;27.646;2022-07-29T11:47:41;101524.91;;;39.91;57.74
6028;BME280;3042;43.194;27.646;2022-07-29T11:50:15;101528.00;;;39.85;57.15
6028;BME280;3042;43.194;27.646;2022-07-29T11:52:44;101512.41;;;39.61;57.45
6028;BME280;3042;43.194;27.646;2022-07-29T11:55:13;101518.50;;;39.65;57.03
6028;BME280;3042;43.194;27.646;2022-07-29T11:57:48;101540.94;;;39.94;59.16
6028;BME280;3042;43.194;27.646;2022-07-29T12:00:24;101426.59;;;39.36;58.59
6028;BME280;3042;43.194;27.646;2022-07-29T12:02:54;101566.06;;;40.23;58.22
6028;BME280;3042;43.194;27.646;2022-07-29T12:05:31;101587.72;;;40.50;59.12
6028;BME280;3042;43.194;27.646;2022-07-29T12:08:08;101566.25;;;40.47;58.32
6028;BME280;3042;43.194;27.646;2022-07-29T12:10:36;101520.59;;;40.01;58.02
6028;BME280;3042;43.194;27.646;2022-07-29T12:13:04;101537.53;;;40.18;58.97
6028;BME280;3042;43.194;27.646;2022-07-29T12:15:31;101564.94;;;40.40;59.87
6028;BME280;3042;43.194;27.646;2022-07-29T12:18:09;101496.34;;;40.00;58.31
6028;BME280;3042;43.194;27.646;2022-07-29T12:20:36;101488.00;;;39.76;58.40
6028;BME280;3042;43.194;27.646;2022-07-29T12:23:06;101502.16;;;39.81;58.81
6028;BME280;3042;43.194;27.646;2022-07-29T12:25:35;101493.63;;;39.73;58.96
6028;BME280;3042;43.194;27.646;2022-07-29T12:28:04;101532.34;;;40.15;60.00
6028;BME280;3042;43.194;27.646;2022-07-29T12:30:40;101556.03;;;40.38;60.39
6028;BME280;3042;43.194;27.646;2022-07-29T12:33:14;101533.88;;;40.19;59.57
6028;BME280;3042;43.194;27.646;2022-07-29T12:35:42;101523.44;;;40.13;60.07
6028;BME280;3042;43.194;27.646;2022-07-29T12:38:12;101491.31;;;39.81;60.29
6028;BME280;3042;43.194;27.646;2022-07-29T12:40:40;101492.19;;;39.81;61.18
6028;BME280;3042;43.194;27.646;2022-07-29T12:43:09;101511.53;;;40.02;62.00
6028;BME280;3042;43.194;27.646;2022-07-29T12:45:36;101553.25;;;40.40;61.50
6028;BME280;3042;43.194;27.646;2022-07-29T12:48:05;101582.16;;;40.79;61.29
6028;BME280;3042;43.194;27.646;2022-07-29T12:50:36;101531.75;;;40.37;60.24
6028;BME280;3042;43.194;27.646;2022-07-29T12:53:11;101549.34;;;40.57;60.46
6028;BME280;3042;43.194;27.646;2022-07-29T12:55:43;101532.88;;;40.47;60.97
6028;BME280;3042;43.194;27.646;2022-07-29T12:58:10;101547.84;;;40.65;60.98
6028;BME280;3042;43.194;27.646;2022-07-29T13:00:37;101565.13;;;40.77;61.35
6028;BME280;3042;43.194;27.646;2022-07-29T13:03:05;101504.84;;;40.21;60.26
6028;BME280;3042;43.194;27.646;2022-07-29T13:05:41;101550.88;;;40.61;60.86
6028;BME280;3042;43.194;27.646;2022-07-29T13:08:13;101545.47;;;40.61;60.35
6028;BME280;3042;43.194;27.646;2022-07-29T13:10:41;101552.19;;;40.68;59.93
6028;BME280;3042;43.194;27.646;2022-07-29T13:13:09;101528.41;;;40.46;59.91
6028;BME280;3042;43.194;27.646;2022-07-29T13:15:37;101492.44;;;40.04;59.77